Time,TemperatureF,DewpointF,PressureIn,WindDirection,WindDirectionDegrees,WindSpeedMPH,WindSpeedGustMPH,Humidity,HourlyPrecipIn,Conditions,Clouds,dailyrainin,SoftwareType,DateUTC
2013-04-09 00:00:00,59.5,56.6,29.81,South,175,0.0,0.0,90,0.00,,---,0.00,VWS V14.01,2013-04-09 05:00:00,
2013-04-09 00:10:00,59.3,56.7,29.82,South,175,0.0,0.0,91,0.00,,---,0.00,VWS V14.01,2013-04-09 05:10:00,
2013-04-09 00:13:00,59.2,56.6,29.81,South,175,0.0,0.0,91,0.00,,---,0.00,VWS V14.01,2013-04-09 05:13:00,
2013-04-09 00:15:00,59.2,56.6,29.81,South,175,0.0,0.0,91,0.00,,---,0.00,VWS V14.01,2013-04-09 05:15:00,
2013-04-09 00:30:00,59.3,57.0,29.82,South,175,0.0,0.0,92,0.00,,---,0.00,VWS V14.01,2013-04-09 05:30:00,
2013-04-09 00:43:00,59.5,57.2,29.81,South,175,0.0,0.0,92,0.00,,---,0.00,VWS V14.01,2013-04-09 05:43:00,
2013-04-09 00:45:00,59.5,57.2,29.81,South,175,0.0,0.0,92,0.00,,---,0.00,VWS V14.01,2013-04-09 05:45:00,
2013-04-09 00:50:00,59.6,57.3,29.81,South,175,0.0,1.0,92,0.00,,---,0.00,VWS V14.01,2013-04-09 05:50:00,
2013-04-09 01:00:00,60.0,57.7,29.81,South,175,0.0,1.0,92,0.00,,---,0.00,VWS V14.01,2013-04-09 06:00:00,
2013-04-09 01:10:00,60.7,57.8,29.81,SSE,167,0.0,3.0,90,0.00,,---,0.00,VWS V14.01,2013-04-09 06:10:00,
2013-04-09 01:13:00,60.8,57.8,29.81,SSE,167,0.0,3.0,90,0.00,,---,0.00,VWS V14.01,2013-04-09 06:13:00,
2013-04-09 01:15:00,60.8,57.8,29.81,SSE,167,0.0,3.0,90,0.00,,---,0.00,VWS V14.01,2013-04-09 06:15:00,
2013-04-09 01:30:00,61.4,57.8,29.80,NE,52,0.0,0.0,88,0.00,,---,0.00,VWS V14.01,2013-04-09 06:30:00,
2013-04-09 01:45:00,61.6,57.4,29.79,SE,127,0.0,5.0,86,0.00,,---,0.00,VWS V14.01,2013-04-09 06:45:00,
2013-04-09 01:50:00,61.6,57.4,29.79,ENE,68,2.0,3.0,86,0.00,,---,0.00,VWS V14.01,2013-04-09 06:50:00,
2013-04-09 02:00:00,61.5,57.3,29.79,ENE,68,0.0,3.0,86,0.00,,---,0.00,VWS V14.01,2013-04-09 07:00:00,
2013-04-09 02:10:00,61.4,57.5,29.79,ENE,68,0.0,3.0,87,0.00,,---,0.00,VWS V14.01,2013-04-09 07:10:00,
2013-04-09 02:15:00,61.3,57.4,29.79,ENE,68,2.0,3.0,87,0.00,,---,0.00,VWS V14.01,2013-04-09 07:15:00,
2013-04-09 02:28:00,61.5,57.6,29.78,ENE,68,0.0,4.0,87,0.00,,---,0.00,VWS V14.01,2013-04-09 07:28:00,
2013-04-09 02:30:00,61.5,57.3,29.79,ENE,68,0.0,0.0,86,0.00,,---,0.00,VWS V14.01,2013-04-09 07:30:00,
2013-04-09 02:45:00,61.2,57.3,29.78,ENE,68,0.0,1.0,87,0.00,,---,0.00,VWS V14.01,2013-04-09 07:45:00,
2013-04-09 02:50:00,61.0,57.1,29.78,ENE,68,0.0,0.0,87,0.00,,---,0.00,VWS V14.01,2013-04-09 07:50:00,
2013-04-09 03:00:00,60.6,57.0,29.78,ENE,68,0.0,3.0,88,0.00,,---,0.00,VWS V14.01,2013-04-09 08:00:00,
2013-04-09 03:10:00,60.2,56.6,29.78,ENE,68,0.0,1.0,88,0.00,,---,0.00,VWS V14.01,2013-04-09 08:10:00,
2013-04-09 03:15:00,60.1,56.5,29.78,ENE,68,0.0,1.0,88,0.00,,---,0.00,VWS V14.01,2013-04-09 08:15:00,
2013-04-09 03:30:00,59.5,56.3,29.78,East,85,0.0,1.0,89,0.00,,---,0.00,VWS V14.01,2013-04-09 08:30:00,
2013-04-09 03:43:00,59.0,56.1,29.78,NE,55,0.0,3.0,90,0.00,,---,0.00,VWS V14.01,2013-04-09 08:43:00,
2013-04-09 03:45:00,59.0,56.1,29.78,NE,55,0.0,3.0,90,0.00,,---,0.00,VWS V14.01,2013-04-09 08:45:00,
2013-04-09 03:50:00,58.8,55.9,29.78,NE,34,2.0,3.0,90,0.00,,---,0.00,VWS V14.01,2013-04-09 08:50:00,
2013-04-09 04:00:00,58.6,55.7,29.78,East,90,0.0,3.0,90,0.00,,---,0.00,VWS V14.01,2013-04-09 09:00:00,
2013-04-09 04:11:00,58.3,55.4,29.79,East,92,0.0,2.0,90,0.00,,---,0.00,VWS V14.01,2013-04-09 09:11:00,
2013-04-09 04:15:00,58.2,55.3,29.79,East,92,0.0,2.0,90,0.00,,---,0.00,VWS V14.01,2013-04-09 09:15:00,
2013-04-09 04:28:00,58.0,55.1,29.79,East,83,0.0,2.0,90,0.00,,---,0.00,VWS V14.01,2013-04-09 09:28:00,
2013-04-09 04:30:00,58.0,55.1,29.79,East,83,0.0,2.0,90,0.00,,---,0.00,VWS V14.01,2013-04-09 09:30:00,
2013-04-09 04:44:00,57.8,54.9,29.78,ENE,67,1.0,2.0,90,0.00,,---,0.00,VWS V14.01,2013-04-09 09:44:00,
2013-04-09 04:45:00,57.8,54.9,29.78,ENE,67,1.0,2.0,90,0.00,,---,0.00,VWS V14.01,2013-04-09 09:45:00,
2013-04-09 04:51:00,57.7,54.8,29.78,ESE,112,0.0,2.0,90,0.00,,---,0.00,VWS V14.01,2013-04-09 09:51:00,
2013-04-09 05:00:00,57.6,54.7,29.79,ESE,113,0.0,2.0,90,0.00,,---,0.00,VWS V14.01,2013-04-09 10:00:00,
2013-04-09 05:11:00,57.5,54.6,29.79,NE,34,0.0,3.0,90,0.00,,---,0.00,VWS V14.01,2013-04-09 10:11:00,
2013-04-09 05:15:00,57.4,54.5,29.78,NE,34,0.0,3.0,90,0.00,,---,0.00,VWS V14.01,2013-04-09 10:15:00,
2013-04-09 05:30:00,57.3,54.7,29.78,NE,34,0.0,1.0,91,0.00,,---,0.00,VWS V14.01,2013-04-09 10:30:00,
2013-04-09 05:31:00,57.3,54.7,29.78,NE,34,0.0,1.0,91,0.00,,---,0.00,VWS V14.01,2013-04-09 10:31:00,
2013-04-09 05:45:00,57.3,54.7,29.78,NE,38,0.0,2.0,91,0.00,,---,0.00,VWS V14.01,2013-04-09 10:45:00,
2013-04-09 05:51:00,57.4,54.8,29.79,NE,39,0.0,1.0,91,0.00,,---,0.00,VWS V14.01,2013-04-09 10:51:00,
2013-04-09 06:00:00,57.4,54.8,29.79,NE,39,1.0,2.0,91,0.00,,---,0.00,VWS V14.01,2013-04-09 11:00:00,
2013-04-09 06:11:00,57.4,54.8,29.79,NE,39,1.0,2.0,91,0.00,,---,0.00,VWS V14.01,2013-04-09 11:11:00,
2013-04-09 06:15:00,57.4,54.8,29.79,NE,39,0.0,2.0,91,0.00,,---,0.00,VWS V14.01,2013-04-09 11:15:00,
2013-04-09 06:30:00,57.5,54.9,29.78,NE,39,0.0,1.0,91,0.00,,---,0.00,VWS V14.01,2013-04-09 11:30:00,
2013-04-09 06:31:00,57.5,54.9,29.78,NE,39,0.0,1.0,91,0.00,,---,0.00,VWS V14.01,2013-04-09 11:31:00,
2013-04-09 06:43:00,57.5,55.2,29.78,NE,39,0.0,2.0,92,0.00,,---,0.00,VWS V14.01,2013-04-09 11:43:00,
2013-04-09 06:45:00,57.5,55.2,29.78,NE,39,0.0,2.0,92,0.00,,---,0.00,VWS V14.01,2013-04-09 11:45:00,
2013-04-09 06:59:00,57.7,55.4,29.78,NE,39,0.0,2.0,92,0.00,,---,0.00,VWS V14.01,2013-04-09 11:59:00,
2013-04-09 07:00:00,57.7,55.4,29.78,NE,39,0.0,2.0,92,0.00,,---,0.00,VWS V14.01,2013-04-09 12:00:00,
2013-04-09 07:11:00,58.0,55.7,29.78,NE,39,0.0,2.0,92,0.00,,---,0.00,VWS V14.01,2013-04-09 12:11:00,
2013-04-09 07:15:00,58.0,55.7,29.78,NE,39,0.0,2.0,92,0.00,,---,0.00,VWS V14.01,2013-04-09 12:15:00,
2013-04-09 07:28:00,58.4,55.8,29.78,NE,39,0.0,1.0,91,0.00,,---,0.00,VWS V14.01,2013-04-09 12:28:00,
2013-04-09 07:30:00,58.4,55.8,29.78,NE,39,0.0,1.0,91,0.00,,---,0.00,VWS V14.01,2013-04-09 12:30:00,
2013-04-09 07:43:00,58.9,56.3,29.78,NE,39,0.0,2.0,91,0.00,,---,0.00,VWS V14.01,2013-04-09 12:43:00,
2013-04-09 07:45:00,58.9,56.3,29.78,NE,39,0.0,2.0,91,0.00,,---,0.00,VWS V14.01,2013-04-09 12:45:00,
2013-04-09 07:51:00,59.1,56.5,29.78,NE,39,0.0,2.0,91,0.00,,---,0.00,VWS V14.01,2013-04-09 12:51:00,
2013-04-09 08:00:00,59.4,56.8,29.78,NE,39,0.0,2.0,91,0.00,,---,0.00,VWS V14.01,2013-04-09 13:00:00,
2013-04-09 08:11:00,60.0,57.1,29.77,NE,39,0.0,1.0,90,0.00,,---,0.00,VWS V14.01,2013-04-09 13:11:00,
2013-04-09 08:15:00,60.2,57.3,29.78,NE,39,0.0,2.0,90,0.00,,---,0.00,VWS V14.01,2013-04-09 13:15:00,
2013-04-09 08:29:00,61.6,58.0,29.78,NNE,28,1.0,4.0,88,0.00,,---,0.00,VWS V14.01,2013-04-09 13:29:00,
2013-04-09 08:30:00,61.6,58.0,29.78,NNE,28,1.0,4.0,88,0.00,,---,0.00,VWS V14.01,2013-04-09 13:30:00,
2013-04-09 08:44:00,62.9,58.0,29.77,SE,132,2.0,8.0,84,0.00,,---,0.00,VWS V14.01,2013-04-09 13:44:00,
2013-04-09 08:45:00,62.9,58.0,29.77,SE,132,2.0,8.0,84,0.00,,---,0.00,VWS V14.01,2013-04-09 13:45:00,
2013-04-09 08:51:00,63.2,58.0,29.77,East,83,1.0,4.0,83,0.00,,---,0.00,VWS V14.01,2013-04-09 13:51:00,
2013-04-09 09:00:00,63.5,58.2,29.76,SSE,159,4.0,4.0,83,0.00,,---,0.00,VWS V14.01,2013-04-09 14:00:00,
2013-04-09 09:11:00,64.1,58.5,29.76,ENE,63,3.0,7.0,82,0.00,,---,0.00,VWS V14.01,2013-04-09 14:11:00,
2013-04-09 09:15:00,64.1,58.2,29.76,South,185,3.0,7.0,81,0.00,,---,0.00,VWS V14.01,2013-04-09 14:15:00,
2013-04-09 09:30:00,64.3,58.3,29.76,SSE,164,4.0,9.0,81,0.00,,---,0.00,VWS V14.01,2013-04-09 14:30:00,
2013-04-09 09:31:00,64.3,58.3,29.75,SE,130,3.0,8.0,81,0.00,,---,0.00,VWS V14.01,2013-04-09 14:31:00,
2013-04-09 09:45:00,64.5,58.5,29.75,SE,141,1.0,10.0,81,0.00,,---,0.00,VWS V14.01,2013-04-09 14:45:00,
2013-04-09 09:52:00,64.7,58.7,29.75,SE,127,0.0,9.0,81,0.00,,---,0.00,VWS V14.01,2013-04-09 14:52:00,
2013-04-09 10:00:00,64.8,58.8,29.75,SSE,150,0.0,9.0,81,0.00,,---,0.00,VWS V14.01,2013-04-09 15:00:00,
2013-04-09 10:12:00,65.4,59.4,29.74,SSE,159,1.0,8.0,81,0.00,,---,0.00,VWS V14.01,2013-04-09 15:12:00,
2013-04-09 10:14:00,65.6,59.6,29.74,SSE,166,5.0,10.0,81,0.00,,---,0.00,VWS V14.01,2013-04-09 15:14:00,
2013-04-09 10:15:00,65.6,59.6,29.74,SSE,166,5.0,10.0,81,0.00,,---,0.00,VWS V14.01,2013-04-09 15:15:00,
2013-04-09 10:28:00,67.0,60.3,29.74,SSE,153,3.0,8.0,79,0.00,,---,0.00,VWS V14.01,2013-04-09 15:28:00,
2013-04-09 10:30:00,67.0,60.3,29.74,SSE,153,3.0,8.0,79,0.00,,---,0.00,VWS V14.01,2013-04-09 15:30:00,
2013-04-09 10:32:00,67.5,60.4,29.74,South,180,6.0,14.0,78,0.00,,---,0.00,VWS V14.01,2013-04-09 15:32:00,
2013-04-09 10:45:00,69.2,61.0,29.74,South,169,6.0,14.0,75,0.00,,---,0.00,VWS V14.01,2013-04-09 15:45:00,
2013-04-09 10:52:00,69.9,60.9,29.74,SSE,168,7.0,13.0,73,0.00,,---,0.00,VWS V14.01,2013-04-09 15:52:00,
2013-04-09 11:00:00,70.0,60.6,29.74,South,175,4.0,16.0,72,0.00,,---,0.00,VWS V14.01,2013-04-09 16:00:00,
2013-04-09 11:12:00,70.5,61.0,29.74,South,182,7.0,13.0,72,0.00,,---,0.00,VWS V14.01,2013-04-09 16:12:00,
2013-04-09 11:15:00,70.6,61.5,29.75,SSE,158,6.0,13.0,73,0.00,,---,0.00,VWS V14.01,2013-04-09 16:15:00,
2013-04-09 11:30:00,71.5,61.2,29.74,SSE,151,13.0,18.0,70,0.00,,---,0.00,VWS V14.01,2013-04-09 16:30:00,
2013-04-09 11:32:00,71.7,61.4,29.75,South,186,3.0,15.0,70,0.00,,---,0.00,VWS V14.01,2013-04-09 16:32:00,
2013-04-09 11:43:00,72.5,61.8,29.74,SE,146,4.0,15.0,69,0.00,,---,0.00,VWS V14.01,2013-04-09 16:43:00,
2013-04-09 11:45:00,72.5,61.8,29.74,SE,146,4.0,15.0,69,0.00,,---,0.00,VWS V14.01,2013-04-09 16:45:00,
2013-04-09 11:52:00,73.0,62.2,29.74,SSE,163,4.0,16.0,69,0.00,,---,0.00,VWS V14.01,2013-04-09 16:52:00,
2013-04-09 11:58:00,73.6,62.4,29.74,SW,221,5.0,17.0,68,0.00,,---,0.00,VWS V14.01,2013-04-09 16:58:00,
2013-04-09 12:00:00,73.6,62.4,29.74,SW,221,5.0,17.0,68,0.00,,---,0.00,VWS V14.01,2013-04-09 17:00:00,
2013-04-09 12:12:00,74.3,62.6,29.74,SSE,157,2.0,17.0,67,0.00,,---,0.00,VWS V14.01,2013-04-09 17:12:00,
2013-04-09 12:15:00,74.3,62.6,29.74,SE,144,4.0,17.0,67,0.00,,---,0.00,VWS V14.01,2013-04-09 17:15:00,
2013-04-09 12:30:00,74.0,61.9,29.74,SSW,193,5.0,18.0,66,0.00,,---,0.00,VWS V14.01,2013-04-09 17:30:00,
2013-04-09 12:32:00,74.2,62.1,29.74,WSW,251,5.0,16.0,66,0.00,,---,0.00,VWS V14.01,2013-04-09 17:32:00,
2013-04-09 12:45:00,74.5,62.0,29.73,SE,128,16.0,18.0,65,0.00,,---,0.00,VWS V14.01,2013-04-09 17:45:00,
2013-04-09 12:52:00,75.0,62.0,29.73,South,189,7.0,18.0,64,0.00,,---,0.00,VWS V14.01,2013-04-09 17:52:00,
2013-04-09 13:00:00,74.8,62.3,29.73,South,181,9.0,18.0,65,0.00,,---,0.00,VWS V14.01,2013-04-09 18:00:00,
2013-04-09 13:12:00,74.8,61.8,29.73,SSW,205,11.0,17.0,64,0.00,,---,0.00,VWS V14.01,2013-04-09 18:12:00,
2013-04-09 13:15:00,74.8,61.4,29.74,SSW,206,6.0,17.0,63,0.00,,---,0.00,VWS V14.01,2013-04-09 18:15:00,
2013-04-09 13:30:00,75.5,62.0,29.73,SW,221,7.0,17.0,63,0.00,,---,0.00,VWS V14.01,2013-04-09 18:30:00,
2013-04-09 13:32:00,75.3,61.8,29.73,SSE,153,7.0,16.0,63,0.00,,---,0.00,VWS V14.01,2013-04-09 18:32:00,
2013-04-09 13:45:00,75.8,61.9,29.73,SSE,151,9.0,17.0,62,0.00,,---,0.00,VWS V14.01,2013-04-09 18:45:00,
2013-04-09 13:52:00,75.8,61.4,29.72,SSW,205,11.0,17.0,61,0.00,,---,0.00,VWS V14.01,2013-04-09 18:52:00,
2013-04-09 14:00:00,75.9,61.5,29.73,SE,146,9.0,17.0,61,0.00,,---,0.00,VWS V14.01,2013-04-09 19:00:00,
2013-04-09 14:12:00,76.0,62.0,29.73,SSE,154,9.0,19.0,62,0.00,,---,0.00,VWS V14.01,2013-04-09 19:12:00,
2013-04-09 14:15:00,76.0,62.0,29.73,SSE,147,10.0,19.0,62,0.00,,---,0.00,VWS V14.01,2013-04-09 19:15:00,
2013-04-09 14:30:00,75.6,61.7,29.72,SW,229,6.0,16.0,62,0.00,,---,0.00,VWS V14.01,2013-04-09 19:30:00,
2013-04-09 14:32:00,75.3,61.8,29.73,South,186,7.0,10.0,63,0.00,,---,0.00,VWS V14.01,2013-04-09 19:32:00,
2013-04-09 14:44:00,75.1,60.8,29.73,SW,220,3.0,17.0,61,0.00,,---,0.00,VWS V14.01,2013-04-09 19:44:00,
2013-04-09 14:45:00,75.1,60.8,29.73,SW,220,3.0,17.0,61,0.00,,---,0.00,VWS V14.01,2013-04-09 19:45:00,
2013-04-09 14:52:00,75.2,60.8,29.72,South,179,4.0,16.0,61,0.00,,---,0.00,VWS V14.01,2013-04-09 19:52:00,
2013-04-09 15:00:00,75.8,61.4,29.72,WSW,240,5.0,16.0,61,0.00,,---,0.00,VWS V14.01,2013-04-09 20:00:00,
2013-04-09 15:12:00,76.2,61.3,29.72,SW,229,5.0,13.0,60,0.00,,---,0.00,VWS V14.01,2013-04-09 20:12:00,
2013-04-09 15:15:00,76.2,60.8,29.72,SSW,200,6.0,13.0,59,0.00,,---,0.00,VWS V14.01,2013-04-09 20:15:00,
2013-04-09 15:30:00,76.6,59.8,29.72,SSE,157,4.0,14.0,56,0.00,,---,0.00,VWS V14.01,2013-04-09 20:30:00,
2013-04-09 15:32:00,76.6,60.7,29.72,SSE,162,7.0,11.0,58,0.00,,---,0.00,VWS V14.01,2013-04-09 20:32:00,
2013-04-09 15:45:00,77.1,60.7,29.72,SW,232,6.0,13.0,57,0.00,,---,0.00,VWS V14.01,2013-04-09 20:45:00,
2013-04-09 15:53:00,77.3,60.4,29.72,SE,135,5.0,11.0,56,0.00,,---,0.00,VWS V14.01,2013-04-09 20:53:00,
2013-04-09 16:00:00,77.0,60.6,29.72,SSW,209,3.0,11.0,57,0.00,,---,0.00,VWS V14.01,2013-04-09 21:00:00,
2013-04-09 16:13:00,77.4,60.5,29.72,SSW,192,6.0,14.0,56,0.00,,---,0.00,VWS V14.01,2013-04-09 21:13:00,
2013-04-09 16:14:00,77.5,60.6,29.72,South,180,4.0,14.0,56,0.00,,---,0.00,VWS V14.01,2013-04-09 21:14:00,
2013-04-09 16:15:00,77.5,60.6,29.72,South,180,4.0,14.0,56,0.00,,---,0.00,VWS V14.01,2013-04-09 21:15:00,
2013-04-09 16:30:00,78.1,61.1,29.71,SSE,157,6.0,12.0,56,0.00,,---,0.00,VWS V14.01,2013-04-09 21:30:00,
2013-04-09 16:33:00,78.1,61.1,29.72,SW,225,3.0,10.0,56,0.00,,---,0.00,VWS V14.01,2013-04-09 21:33:00,
2013-04-09 16:45:00,78.2,61.2,29.72,South,176,6.0,13.0,56,0.00,,---,0.00,VWS V14.01,2013-04-09 21:45:00,
2013-04-09 16:53:00,78.1,61.1,29.72,WNW,303,8.0,13.0,56,0.00,,---,0.00,VWS V14.01,2013-04-09 21:53:00,
2013-04-09 16:58:00,77.9,61.0,29.72,South,169,7.0,13.0,56,0.00,,---,0.00,VWS V14.01,2013-04-09 21:58:00,
2013-04-09 17:00:00,77.9,61.0,29.72,South,169,7.0,13.0,56,0.00,,---,0.00,VWS V14.01,2013-04-09 22:00:00,
2013-04-09 17:13:00,77.6,62.2,29.72,SW,220,3.0,13.0,59,0.00,,---,0.00,VWS V14.01,2013-04-09 22:13:00,
2013-04-09 17:15:00,77.6,61.7,29.72,SSW,211,2.0,13.0,58,0.00,,---,0.00,VWS V14.01,2013-04-09 22:15:00,
2013-04-09 17:28:00,77.0,61.6,29.73,SSW,202,3.0,11.0,59,0.00,,---,0.00,VWS V14.01,2013-04-09 22:28:00,
2013-04-09 17:30:00,77.0,61.6,29.73,SSW,202,3.0,11.0,59,0.00,,---,0.00,VWS V14.01,2013-04-09 22:30:00,
2013-04-09 17:33:00,76.7,61.3,29.73,SW,217,2.0,8.0,59,0.00,,---,0.00,VWS V14.01,2013-04-09 22:33:00,
2013-04-09 17:44:00,76.2,61.3,29.73,SSE,159,3.0,8.0,60,0.00,,---,0.00,VWS V14.01,2013-04-09 22:44:00,
2013-04-09 17:45:00,76.2,61.3,29.73,SSE,159,3.0,8.0,60,0.00,,---,0.00,VWS V14.01,2013-04-09 22:45:00,
2013-04-09 17:53:00,76.1,62.2,29.73,SW,217,4.0,5.0,62,0.00,,---,0.00,VWS V14.01,2013-04-09 22:53:00,
2013-04-09 17:58:00,76.0,61.6,29.73,SE,130,3.0,9.0,61,0.00,,---,0.00,VWS V14.01,2013-04-09 22:58:00,
2013-04-09 18:00:00,76.0,61.6,29.73,SE,130,3.0,9.0,61,0.00,,---,0.00,VWS V14.01,2013-04-09 23:00:00,
2013-04-09 18:13:00,75.4,61.5,29.74,SSE,155,2.0,8.0,62,0.00,,---,0.00,VWS V14.01,2013-04-09 23:13:00,
2013-04-09 18:15:00,75.3,61.4,29.74,SSE,155,1.0,8.0,62,0.00,,---,0.00,VWS V14.01,2013-04-09 23:15:00,
2013-04-09 18:28:00,74.8,61.4,29.74,South,179,1.0,7.0,63,0.00,,---,0.00,VWS V14.01,2013-04-09 23:28:00,
2013-04-09 18:30:00,74.8,61.4,29.74,South,179,1.0,7.0,63,0.00,,---,0.00,VWS V14.01,2013-04-09 23:30:00,
2013-04-09 18:33:00,74.7,61.3,29.74,South,171,3.0,5.0,63,0.00,,---,0.00,VWS V14.01,2013-04-09 23:33:00,
2013-04-09 18:43:00,74.5,61.5,29.74,South,173,0.0,5.0,64,0.00,,---,0.00,VWS V14.01,2013-04-09 23:43:00,
2013-04-09 18:45:00,74.5,61.5,29.74,South,173,0.0,5.0,64,0.00,,---,0.00,VWS V14.01,2013-04-09 23:45:00,
2013-04-09 18:53:00,74.2,61.7,29.74,South,169,0.0,4.0,65,0.00,,---,0.00,VWS V14.01,2013-04-09 23:53:00,
2013-04-09 18:58:00,74.2,61.7,29.74,South,169,0.0,4.0,65,0.00,,---,0.00,VWS V14.01,2013-04-09 23:58:00,
2013-04-09 19:00:00,74.2,61.7,29.74,South,169,0.0,4.0,65,0.00,,---,0.00,VWS V14.01,2013-04-10 00:00:00,
2013-04-09 19:13:00,73.8,61.7,29.74,SSE,162,0.0,3.0,66,0.00,,---,0.00,VWS V14.01,2013-04-10 00:13:00,
2013-04-09 19:15:00,73.7,61.7,29.74,SSE,162,0.0,3.0,66,0.00,,---,0.00,VWS V14.01,2013-04-10 00:15:00,
2013-04-09 19:28:00,73.4,61.8,29.73,SSE,161,0.0,4.0,67,0.00,,---,0.00,VWS V14.01,2013-04-10 00:28:00,
2013-04-09 19:30:00,73.4,61.8,29.73,SSE,161,0.0,4.0,67,0.00,,---,0.00,VWS V14.01,2013-04-10 00:30:00,
2013-04-09 19:33:00,73.2,62.0,29.73,SSE,161,0.0,0.0,68,0.00,,---,0.00,VWS V14.01,2013-04-10 00:33:00,
2013-04-09 19:43:00,72.9,61.7,29.73,SSE,155,0.0,5.0,68,0.00,,---,0.00,VWS V14.01,2013-04-10 00:43:00,
2013-04-09 19:45:00,72.9,61.7,29.73,SSE,155,0.0,5.0,68,0.00,,---,0.00,VWS V14.01,2013-04-10 00:45:00,
2013-04-09 19:53:00,72.6,61.4,29.74,SSE,155,1.0,2.0,68,0.00,,---,0.00,VWS V14.01,2013-04-10 00:53:00,
2013-04-09 19:58:00,72.4,61.7,29.74,SSE,155,0.0,4.0,69,0.00,,---,0.00,VWS V14.01,2013-04-10 00:58:00,
2013-04-09 20:00:00,72.4,61.7,29.74,SSE,155,0.0,4.0,69,0.00,,---,0.00,VWS V14.01,2013-04-10 01:00:00,
2013-04-09 20:13:00,71.7,61.4,29.74,SSE,155,0.0,2.0,70,0.00,,---,0.00,VWS V14.01,2013-04-10 01:13:00,
2013-04-09 20:15:00,71.6,61.3,29.74,SSE,155,0.0,2.0,70,0.00,,---,0.00,VWS V14.01,2013-04-10 01:15:00,
2013-04-09 20:28:00,70.6,61.1,29.74,SSE,155,0.0,1.0,72,0.00,,---,0.00,VWS V14.01,2013-04-10 01:28:00,
2013-04-09 20:30:00,70.6,61.2,29.74,SSE,155,0.0,1.0,72,0.00,,---,0.00,VWS V14.01,2013-04-10 01:30:00,
2013-04-09 20:33:00,70.3,61.2,29.75,SSE,155,0.0,0.0,73,0.00,,---,0.00,VWS V14.01,2013-04-10 01:33:00,
2013-04-09 20:43:00,69.7,61.0,29.75,SSE,155,0.0,0.0,74,0.00,,---,0.00,VWS V14.01,2013-04-10 01:43:00,
2013-04-09 20:45:00,69.7,61.0,29.75,SSE,155,0.0,0.0,74,0.00,,---,0.00,VWS V14.01,2013-04-10 01:45:00,
2013-04-09 20:53:00,69.4,61.1,29.76,SSE,155,0.0,0.0,75,0.00,,---,0.00,VWS V14.01,2013-04-10 01:53:00,
2013-04-09 20:58:00,69.3,61.0,29.76,SSE,155,0.0,0.0,75,0.00,,---,0.00,VWS V14.01,2013-04-10 01:58:00,
2013-04-09 21:00:00,69.3,61.0,29.76,SSE,155,0.0,0.0,75,0.00,,---,0.00,VWS V14.01,2013-04-10 02:00:00,
2013-04-09 21:13:00,69.1,61.2,29.76,SSE,155,0.0,1.0,76,0.00,,---,0.00,VWS V14.01,2013-04-10 02:13:00,
2013-04-09 21:15:00,69.1,61.2,29.76,SSE,155,0.0,1.0,76,0.00,,---,0.00,VWS V14.01,2013-04-10 02:15:00,
2013-04-09 21:28:00,69.0,61.1,29.76,SSE,155,0.0,1.0,76,0.00,,---,0.00,VWS V14.01,2013-04-10 02:28:00,
2013-04-09 21:30:00,69.0,61.1,29.76,SSE,155,0.0,1.0,76,0.00,,---,0.00,VWS V14.01,2013-04-10 02:30:00,
2013-04-09 21:43:00,68.8,61.3,29.76,SSE,155,0.0,2.0,77,0.00,,---,0.00,VWS V14.01,2013-04-10 02:43:00,
2013-04-09 21:45:00,68.8,61.3,29.76,SSE,155,0.0,2.0,77,0.00,,---,0.00,VWS V14.01,2013-04-10 02:45:00,
2013-04-09 21:53:00,68.8,61.3,29.77,SSE,155,1.0,2.0,77,0.00,,---,0.00,VWS V14.01,2013-04-10 02:53:00,
2013-04-09 21:58:00,68.7,61.2,29.77,SSE,151,0.0,3.0,77,0.00,,---,0.00,VWS V14.01,2013-04-10 02:58:00,
2013-04-09 22:00:00,68.7,61.2,29.77,SSE,151,0.0,3.0,77,0.00,,---,0.00,VWS V14.01,2013-04-10 03:00:00,
2013-04-09 22:13:00,67.2,56.7,29.77,NE,48,4.0,7.0,69,0.00,,---,0.00,VWS V14.01,2013-04-10 03:13:00,
2013-04-09 22:15:00,67.1,56.6,29.77,NE,48,5.0,7.0,69,0.00,,---,0.00,VWS V14.01,2013-04-10 03:15:00,
2013-04-09 22:28:00,59.3,53.1,29.78,NE,44,3.0,8.0,80,0.00,,---,0.00,VWS V14.01,2013-04-10 03:28:00,
2013-04-09 22:30:00,59.3,53.1,29.78,NE,44,3.0,8.0,80,0.00,,---,0.00,VWS V14.01,2013-04-10 03:30:00,
2013-04-09 22:33:00,58.2,52.7,29.78,NE,40,3.0,6.0,82,0.00,,---,0.00,VWS V14.01,2013-04-10 03:33:00,
2013-04-09 22:43:00,56.9,51.8,29.78,NNE,26,4.0,8.0,83,0.00,,---,0.00,VWS V14.01,2013-04-10 03:43:00,
2013-04-09 22:45:00,56.9,51.8,29.78,NNE,26,4.0,8.0,83,0.00,,---,0.00,VWS V14.01,2013-04-10 03:45:00,
2013-04-09 22:53:00,56.4,52.0,29.78,NE,42,5.0,8.0,85,0.00,,---,0.00,VWS V14.01,2013-04-10 03:53:00,
2013-04-09 22:58:00,56.3,51.9,29.78,NE,41,3.0,8.0,85,0.00,,---,0.00,VWS V14.01,2013-04-10 03:58:00,
2013-04-09 23:00:00,56.3,51.9,29.78,NE,41,3.0,8.0,85,0.00,,---,0.00,VWS V14.01,2013-04-10 04:00:00,
2013-04-09 23:13:00,56.2,51.8,29.77,NE,40,1.0,7.0,85,0.00,,---,0.00,VWS V14.01,2013-04-10 04:13:00,
2013-04-09 23:15:00,56.2,51.8,29.77,NE,40,1.0,7.0,85,0.00,,---,0.00,VWS V14.01,2013-04-10 04:15:00,
2013-04-09 23:28:00,56.2,51.8,29.77,NNE,19,3.0,7.0,85,0.00,,---,0.00,VWS V14.01,2013-04-10 04:28:00,
2013-04-09 23:30:00,56.2,51.8,29.77,NNE,19,3.0,7.0,85,0.00,,---,0.00,VWS V14.01,2013-04-10 04:30:00,
2013-04-09 23:33:00,56.1,51.3,29.77,NNE,22,2.0,5.0,84,0.00,,---,0.00,VWS V14.01,2013-04-10 04:33:00,
2013-04-09 23:43:00,55.6,50.5,29.77,NE,50,1.0,5.0,83,0.00,,---,0.00,VWS V14.01,2013-04-10 04:43:00,
2013-04-09 23:45:00,55.6,50.5,29.77,NE,50,1.0,5.0,83,0.00,,---,0.00,VWS V14.01,2013-04-10 04:45:00,
2013-04-09 23:53:00,54.9,49.8,29.77,NE,51,3.0,5.0,83,0.00,,---,0.00,VWS V14.01,2013-04-10 04:53:00,
2013-04-09 23:58:00,54.5,49.5,29.77,NE,44,2.0,5.0,83,0.00,,---,0.00,VWS V14.01,2013-04-10 04:58:00,